createdAt,value
2023-05-10T00:01:22.576Z,70.90
2023-05-10T00:03:49.473Z,70.80
2023-05-10T00:06:16.425Z,70.70
2023-05-10T00:08:43.401Z,70.90
2023-05-10T00:11:10.233Z,69.40
2023-05-10T00:13:37.129Z,70.10
2023-05-10T00:16:04.151Z,70.30
2023-05-10T00:18:30.974Z,70.60
2023-05-10T00:20:57.795Z,71.80
2023-05-10T00:23:24.622Z,71.40
2023-05-10T00:25:51.382Z,71.60
2023-05-10T00:28:18.165Z,71.70
2023-05-10T00:30:45.039Z,72.30
2023-05-10T00:33:12.572Z,72.60
2023-05-10T00:35:39.488Z,72.30
2023-05-10T00:38:06.296Z,71.50
2023-05-10T00:40:33.090Z,71.90
2023-05-10T00:43:01.552Z,71.60
2023-05-10T00:45:28.390Z,71.80
2023-05-10T00:47:56.950Z,71.40
2023-05-10T00:50:24.471Z,71.70
2023-05-10T00:52:51.526Z,71.90
2023-05-10T00:55:19.154Z,71.70
2023-05-10T00:57:46.659Z,71.50
2023-05-10T01:00:18.870Z,70.30
2023-05-10T01:02:47.326Z,70.40
2023-05-10T01:05:14.708Z,70.80
2023-05-10T01:07:42.142Z,71.20
2023-05-10T01:10:09.957Z,71.10
2023-05-10T01:12:42.286Z,70.90
2023-05-10T01:15:11.926Z,71.80
2023-05-10T01:17:40.995Z,70.60
2023-05-10T01:20:10.309Z,69.50
2023-05-10T01:22:43.045Z,69.90
2023-05-10T01:25:42.100Z,70.30
2023-05-10T01:28:17.643Z,70.00
2023-05-10T01:31:09.592Z,70.00
2023-05-10T01:34:09.926Z,69.70
2023-05-10T01:36:46.653Z,70.30
2023-05-10T01:39:25.581Z,70.40
2023-05-10T01:41:55.589Z,70.60
2023-05-10T01:44:43.657Z,71.50
2023-05-10T01:47:13.511Z,71.50
2023-05-10T01:49:51.487Z,72.40
2023-05-10T01:52:23.473Z,71.80
2023-05-10T01:55:00.029Z,71.50
2023-05-10T01:57:31.320Z,71.50
2023-05-10T01:59:59.660Z,71.80
2023-05-10T02:02:28.628Z,72.10
2023-05-10T02:04:56.670Z,72.50
2023-05-10T02:07:24.850Z,71.50
2023-05-10T02:09:52.484Z,71.60
2023-05-10T02:12:19.891Z,71.30
2023-05-10T02:14:47.916Z,71.70
2023-05-10T02:17:15.448Z,71.80
2023-05-10T02:19:44.139Z,71.80
2023-05-10T02:22:11.468Z,71.90
2023-05-10T02:24:39.460Z,71.70
2023-05-10T02:27:07.215Z,71.30
2023-05-10T02:29:35.244Z,71.60
2023-05-10T02:32:03.478Z,72.00
2023-05-10T02:34:32.124Z,72.10
2023-05-10T02:37:00.778Z,72.80
2023-05-10T02:39:29.620Z,72.40
2023-05-10T02:41:58.182Z,72.10
2023-05-10T02:44:27.790Z,71.70
2023-05-10T02:46:57.019Z,71.50
2023-05-10T02:49:23.939Z,71.90
2023-05-10T02:51:57.805Z,72.30
2023-05-10T02:54:31.510Z,71.90
2023-05-10T02:57:03.902Z,71.70
2023-05-10T02:59:30.796Z,72.00
2023-05-10T03:01:57.642Z,72.20
2023-05-10T03:04:24.447Z,72.20
2023-05-10T03:06:51.677Z,72.40
2023-05-10T03:09:18.645Z,72.70
2023-05-10T03:12:16.694Z,72.90
2023-05-10T03:15:01.624Z,73.00
2023-05-10T03:17:55.811Z,73.50
2023-05-10T03:20:28.513Z,73.70
2023-05-10T03:23:01.871Z,74.00
2023-05-10T03:25:32.058Z,74.30
2023-05-10T03:28:00.589Z,74.20
2023-05-10T03:30:27.862Z,73.90
2023-05-10T03:32:55.247Z,74.00
2023-05-10T03:35:22.080Z,74.10
2023-05-10T03:37:49.029Z,74.10
2023-05-10T03:40:16.662Z,74.20
2023-05-10T03:42:43.568Z,73.70
2023-05-10T03:45:10.822Z,73.50
2023-05-10T03:47:37.575Z,73.40
2023-05-10T03:50:05.084Z,73.60
2023-05-10T03:52:32.734Z,73.20
2023-05-10T03:54:59.646Z,73.10
2023-05-10T03:57:26.469Z,73.10
2023-05-10T03:59:53.249Z,73.20
2023-05-10T04:02:20.099Z,73.00
2023-05-10T04:04:46.899Z,72.60
2023-05-10T04:07:13.745Z,71.20
2023-05-10T04:09:41.427Z,70.00
2023-05-10T04:12:10.770Z,69.50
2023-05-10T04:14:38.261Z,70.10
2023-05-10T04:17:05.267Z,70.60
2023-05-10T04:19:32.747Z,68.90
2023-05-10T04:21:59.935Z,67.20
2023-05-10T04:24:26.890Z,66.00
2023-05-10T04:26:57.161Z,64.10
2023-05-10T04:29:24.611Z,62.90
2023-05-10T04:31:51.966Z,61.30
2023-05-10T04:34:18.982Z,60.00
2023-05-10T04:36:45.726Z,60.00
2023-05-10T04:39:12.538Z,59.60
2023-05-10T04:41:39.698Z,59.20
2023-05-10T04:44:06.508Z,58.40
2023-05-10T04:46:33.703Z,58.30
2023-05-10T04:49:00.625Z,58.00
2023-05-10T04:51:27.425Z,57.70
2023-05-10T04:54:05.253Z,58.10
2023-05-10T04:56:33.229Z,57.10
2023-05-10T04:59:00.129Z,56.20
2023-05-10T05:01:27.089Z,56.50
2023-05-10T05:03:54.147Z,55.80
2023-05-10T05:06:22.091Z,55.70
2023-05-10T05:08:50.547Z,54.80
2023-05-10T05:11:18.379Z,54.40
2023-05-10T05:13:45.135Z,54.20
2023-05-10T05:16:12.525Z,54.30
2023-05-10T05:18:39.622Z,53.80
2023-05-10T05:21:19.951Z,54.60
2023-05-10T05:23:47.255Z,56.10
2023-05-10T05:26:14.052Z,57.20
2023-05-10T05:28:40.893Z,58.00
2023-05-10T05:31:08.913Z,57.70
2023-05-10T05:33:35.975Z,58.10
2023-05-10T05:36:06.619Z,57.80
2023-05-10T05:38:33.688Z,57.20
2023-05-10T05:41:00.659Z,56.80
2023-05-10T05:43:27.489Z,56.20
2023-05-10T05:45:55.007Z,56.10
2023-05-10T05:48:22.178Z,56.10
2023-05-10T05:50:48.975Z,55.80
2023-05-10T05:53:15.761Z,55.50
2023-05-10T05:55:53.029Z,55.20
2023-05-10T05:58:19.932Z,55.50
2023-05-10T06:00:46.971Z,54.80
2023-05-10T06:03:13.891Z,54.20
2023-05-10T06:05:40.785Z,54.10
2023-05-10T06:08:07.622Z,54.30
2023-05-10T06:10:34.607Z,54.00
2023-05-10T06:13:01.442Z,54.40
2023-05-10T06:15:28.762Z,54.80
2023-05-10T06:17:55.654Z,55.40
2023-05-10T06:20:22.676Z,55.90
2023-05-10T06:22:49.539Z,55.90
2023-05-10T06:25:19.014Z,56.80
2023-05-10T06:27:49.850Z,57.50
2023-05-10T06:30:18.817Z,57.90
2023-05-10T06:32:46.390Z,57.80
2023-05-10T06:35:13.342Z,57.90
2023-05-10T06:37:40.647Z,57.60
2023-05-10T06:40:08.489Z,57.10
2023-05-10T06:42:35.319Z,57.30
2023-05-10T06:45:02.196Z,57.50
2023-05-10T06:47:29.015Z,57.90
2023-05-10T06:49:56.756Z,58.40
2023-05-10T06:52:24.350Z,58.60
2023-05-10T06:54:51.398Z,58.60
2023-05-10T06:57:30.394Z,58.50
2023-05-10T07:00:01.824Z,58.50
2023-05-10T07:02:28.892Z,57.60
2023-05-10T07:04:55.909Z,55.00
2023-05-10T07:07:22.793Z,54.60
2023-05-10T07:09:50.941Z,54.20
2023-05-10T07:12:17.965Z,54.50
2023-05-10T07:14:47.992Z,54.10
2023-05-10T07:17:17.731Z,53.70
2023-05-10T07:19:47.481Z,53.30
2023-05-10T07:22:14.317Z,53.60
2023-05-10T07:24:41.805Z,55.30
2023-05-10T07:27:08.585Z,58.20
2023-05-10T07:29:35.611Z,58.90
2023-05-10T07:32:02.513Z,58.50
2023-05-10T07:34:31.284Z,57.60
2023-05-10T07:37:02.348Z,57.00
2023-05-10T07:39:29.309Z,57.40
2023-05-10T07:41:56.815Z,57.20
2023-05-10T07:44:24.243Z,56.70
2023-05-10T07:46:51.070Z,56.90
2023-05-10T07:49:29.844Z,55.70
2023-05-10T07:52:08.803Z,55.60
2023-05-10T07:54:47.555Z,55.00
2023-05-10T07:57:26.626Z,54.50
2023-05-10T07:59:56.451Z,54.00
2023-05-10T08:02:23.455Z,53.70
2023-05-10T08:04:56.683Z,53.40
2023-05-10T08:07:25.665Z,53.80
2023-05-10T08:09:55.260Z,53.70
2023-05-10T08:12:24.953Z,52.80
2023-05-10T08:14:51.777Z,51.50
2023-05-10T08:17:33.545Z,50.90
2023-05-10T08:20:00.453Z,53.00
2023-05-10T08:22:39.532Z,52.70
2023-05-10T08:25:07.016Z,53.50
2023-05-10T08:27:33.837Z,53.80
2023-05-10T08:30:06.762Z,53.80
2023-05-10T08:32:39.558Z,54.60
2023-05-10T08:35:27.380Z,54.40
2023-05-10T08:37:57.148Z,54.10
2023-05-10T08:40:26.637Z,53.40
2023-05-10T08:43:24.635Z,53.30
2023-05-10T08:45:53.850Z,53.40
2023-05-10T08:48:25.462Z,54.00
2023-05-10T08:50:54.984Z,55.00
2023-05-10T08:53:25.717Z,55.20
2023-05-10T08:55:52.823Z,55.40
2023-05-10T08:58:23.638Z,55.50
2023-05-10T09:00:59.707Z,55.60
2023-05-10T09:03:27.479Z,55.90
2023-05-10T09:05:54.630Z,55.60
2023-05-10T09:08:27.204Z,54.80
2023-05-10T09:10:55.625Z,54.40
2023-05-10T09:13:23.525Z,54.70
2023-05-10T09:15:53.515Z,54.60
2023-05-10T09:18:23.265Z,54.00
2023-05-10T09:20:50.552Z,54.00
2023-05-10T09:23:17.328Z,53.50
2023-05-10T09:25:44.231Z,53.70
2023-05-10T09:28:11.863Z,52.80
2023-05-10T09:30:38.981Z,52.40
2023-05-10T09:33:08.879Z,52.70
2023-05-10T09:35:35.742Z,52.90
2023-05-10T09:38:05.275Z,53.90
2023-05-10T09:40:32.449Z,54.60
2023-05-10T09:43:04.618Z,55.00
2023-05-10T09:45:37.720Z,54.80
2023-05-10T09:48:06.064Z,55.00
2023-05-10T09:50:33.058Z,55.00
2023-05-10T09:53:01.968Z,54.80
2023-05-10T09:55:42.272Z,55.30
2023-05-10T09:58:14.052Z,55.40
2023-05-10T10:00:42.563Z,55.70
2023-05-10T10:03:21.087Z,55.80
2023-05-10T10:05:49.406Z,56.10
2023-05-10T10:08:17.670Z,55.90
2023-05-10T10:10:47.590Z,55.60
2023-05-10T10:13:15.173Z,55.80
2023-05-10T10:15:43.172Z,56.00
2023-05-10T10:18:20.118Z,56.10
2023-05-10T10:20:49.726Z,55.90
2023-05-10T10:23:25.620Z,55.50
2023-05-10T10:25:55.111Z,55.80
2023-05-10T10:28:59.985Z,55.20
2023-05-10T10:31:39.983Z,55.40
2023-05-10T10:34:12.060Z,55.90
2023-05-10T10:36:47.202Z,56.40
2023-05-10T10:39:17.727Z,57.20
2023-05-10T10:41:58.808Z,57.60
2023-05-10T10:44:36.029Z,58.00
2023-05-10T10:47:30.073Z,57.60
2023-05-10T10:50:03.274Z,57.50
2023-05-10T10:52:40.536Z,57.80
2023-05-10T10:55:24.625Z,57.70
2023-05-10T10:58:04.400Z,58.10
2023-05-10T11:00:42.313Z,58.50
2023-05-10T11:03:15.787Z,57.70
2023-05-10T11:05:49.332Z,57.60
2023-05-10T11:08:20.728Z,57.40
2023-05-10T11:11:08.274Z,57.40
2023-05-10T11:13:40.424Z,57.00
2023-05-10T11:16:21.445Z,56.50
2023-05-10T11:19:06.153Z,56.70
2023-05-10T11:21:34.266Z,56.80
2023-05-10T11:24:06.801Z,56.40
2023-05-10T11:26:43.278Z,56.40
2023-05-10T11:29:10.253Z,56.00
2023-05-10T11:31:46.485Z,55.70
2023-05-10T11:34:24.471Z,55.60
2023-05-10T11:36:55.703Z,55.50
2023-05-10T11:39:26.559Z,54.70
2023-05-10T11:41:53.372Z,53.70
2023-05-10T11:44:26.189Z,53.60
2023-05-10T11:46:55.902Z,53.70
2023-05-10T11:49:25.638Z,54.20
2023-05-10T11:52:07.764Z,54.50
2023-05-10T11:54:40.259Z,54.10
2023-05-10T11:57:12.779Z,52.60
2023-05-10T11:59:43.295Z,53.30
2023-05-10T12:02:10.984Z,51.60
2023-05-10T12:04:37.922Z,52.20
2023-05-10T12:07:05.108Z,52.00
2023-05-10T12:10:11.338Z,51.90
2023-05-10T12:12:57.261Z,51.80
2023-05-10T12:15:25.472Z,51.90
2023-05-10T12:17:52.614Z,52.30
2023-05-10T12:20:22.007Z,51.80
2023-05-10T12:22:54.520Z,51.30
2023-05-10T12:25:23.314Z,52.00
2023-05-10T12:27:52.793Z,51.40
2023-05-10T12:30:24.274Z,51.60
2023-05-10T12:33:23.373Z,52.00
2023-05-10T12:35:55.687Z,51.70
2023-05-10T12:38:39.282Z,51.10
2023-05-10T12:41:11.477Z,51.50
2023-05-10T12:43:38.919Z,51.50
2023-05-10T12:46:13.916Z,52.30
2023-05-10T12:48:45.105Z,52.80
2023-05-10T12:51:18.154Z,52.70
2023-05-10T12:53:48.782Z,52.60
2023-05-10T12:56:22.235Z,52.70
2023-05-10T12:58:54.941Z,53.20
2023-05-10T13:01:21.852Z,53.20
2023-05-10T13:03:54.561Z,53.10
2023-05-10T13:06:24.254Z,53.10
2023-05-10T13:08:51.038Z,53.20
2023-05-10T13:11:24.106Z,53.30
2023-05-10T13:13:57.102Z,53.00
2023-05-10T13:16:26.786Z,52.70
2023-05-10T13:18:56.489Z,53.10
2023-05-10T13:21:32.767Z,53.00
2023-05-10T13:24:02.960Z,52.50
2023-05-10T13:26:29.895Z,52.00
2023-05-10T13:28:59.629Z,51.90
2023-05-10T13:31:26.676Z,51.70
2023-05-10T13:33:56.097Z,51.50
2023-05-10T13:36:26.085Z,50.80
2023-05-10T13:38:52.902Z,50.80
2023-05-10T13:41:28.623Z,50.90
2023-05-10T13:44:01.110Z,50.90
2023-05-10T13:46:28.071Z,51.20
2023-05-10T13:48:55.307Z,51.20
2023-05-10T13:51:22.190Z,51.30
2023-05-10T13:53:51.850Z,51.20
2023-05-10T13:56:40.739Z,51.90
2023-05-10T13:59:08.806Z,52.60
2023-05-10T14:01:38.996Z,53.00
2023-05-10T14:04:27.354Z,53.00
2023-05-10T14:06:58.121Z,52.50
2023-05-10T14:09:43.072Z,52.00
2023-05-10T14:12:16.411Z,52.20
2023-05-10T14:14:46.642Z,51.70
2023-05-10T14:17:16.038Z,52.10
2023-05-10T14:19:46.107Z,51.60
2023-05-10T14:22:12.967Z,51.40
2023-05-10T14:24:42.624Z,51.20
2023-05-10T14:27:09.697Z,51.20
2023-05-10T14:29:36.586Z,50.90
2023-05-10T14:32:06.812Z,50.70
2023-05-10T14:34:33.853Z,50.40
2023-05-10T14:37:00.684Z,49.60
2023-05-10T14:39:30.492Z,49.70
2023-05-10T14:42:03.731Z,49.50
2023-05-10T14:44:36.240Z,49.60
2023-05-10T14:47:06.252Z,50.20
2023-05-10T14:49:41.433Z,50.10
2023-05-10T14:53:04.254Z,49.10
2023-05-10T14:55:31.158Z,49.50
2023-05-10T14:57:59.220Z,50.00
2023-05-10T15:00:26.694Z,49.90
2023-05-10T15:02:54.187Z,50.10
2023-05-10T15:05:21.900Z,49.90
2023-05-10T15:07:49.377Z,49.80
2023-05-10T15:10:16.482Z,49.70
2023-05-10T15:12:43.440Z,49.40
2023-05-10T15:15:10.325Z,49.50
2023-05-10T15:17:37.229Z,49.80
2023-05-10T15:20:04.678Z,49.90
2023-05-10T15:22:34.356Z,50.50
2023-05-10T15:25:01.721Z,50.50
2023-05-10T15:27:28.520Z,50.50
2023-05-10T15:29:55.344Z,50.80
2023-05-10T15:32:22.289Z,51.90
2023-05-10T15:34:49.190Z,52.40
2023-05-10T15:37:16.111Z,53.00
2023-05-10T15:39:42.939Z,53.60
2023-05-10T15:42:09.773Z,53.80
2023-05-10T15:44:39.233Z,53.50
2023-05-10T15:47:06.984Z,53.20
2023-05-10T15:49:34.065Z,52.90
2023-05-10T15:52:01.069Z,53.10
2023-05-10T15:54:28.141Z,53.10
2023-05-10T15:56:55.202Z,52.90
2023-05-10T15:59:22.046Z,53.30
2023-05-10T16:01:49.769Z,53.40
2023-05-10T16:04:16.787Z,53.60
2023-05-10T16:06:43.663Z,53.70
2023-05-10T16:09:10.758Z,54.00
2023-05-10T16:11:37.751Z,54.40
2023-05-10T16:14:05.661Z,54.40
2023-05-10T16:16:33.966Z,54.70
2023-05-10T16:19:01.514Z,54.90
2023-05-10T16:21:29.789Z,54.90
2023-05-10T16:23:56.848Z,55.20
2023-05-10T16:26:23.842Z,54.90
2023-05-10T16:28:50.668Z,54.30
2023-05-10T16:31:18.905Z,54.80
2023-05-10T16:33:46.059Z,55.30
2023-05-10T16:36:12.936Z,55.00
2023-05-10T16:38:39.804Z,55.20
2023-05-10T16:41:06.825Z,55.30
2023-05-10T16:43:33.663Z,55.70
2023-05-10T16:46:00.788Z,56.40
2023-05-10T16:48:27.624Z,57.30
2023-05-10T16:50:54.406Z,58.00
2023-05-10T16:53:21.254Z,58.50
2023-05-10T16:55:48.064Z,58.90
2023-05-10T16:58:14.867Z,59.40
2023-05-10T17:00:42.042Z,59.70
2023-05-10T17:03:08.909Z,60.10
2023-05-10T17:05:35.880Z,60.20
2023-05-10T17:08:02.674Z,60.40
2023-05-10T17:10:29.708Z,60.40
2023-05-10T17:12:56.576Z,60.70
2023-05-10T17:15:23.445Z,60.90
2023-05-10T17:17:50.562Z,61.20
2023-05-10T17:20:17.998Z,61.40
2023-05-10T17:22:45.049Z,61.70
2023-05-10T17:25:11.867Z,61.80
2023-05-10T17:27:38.760Z,62.30
2023-05-10T17:30:06.506Z,61.20
2023-05-10T17:32:34.122Z,61.10
2023-05-10T17:35:01.042Z,61.60
2023-05-10T17:37:27.819Z,60.80
2023-05-10T17:39:54.742Z,59.00
2023-05-10T17:42:21.574Z,59.00
2023-05-10T17:44:48.432Z,59.20
2023-05-10T17:47:15.283Z,59.60
2023-05-10T17:49:42.470Z,59.40
2023-05-10T17:52:09.455Z,59.80
2023-05-10T17:54:36.316Z,60.20
2023-05-10T17:57:03.873Z,59.50
2023-05-10T17:59:30.811Z,59.10
2023-05-10T18:01:57.855Z,59.30
2023-05-10T18:04:26.071Z,58.60
2023-05-10T18:07:00.808Z,58.40
2023-05-10T18:09:28.276Z,58.10
2023-05-10T18:11:55.210Z,57.70
2023-05-10T18:14:36.042Z,57.90
2023-05-10T18:17:07.279Z,57.90
2023-05-10T18:19:34.115Z,58.10
2023-05-10T18:22:00.968Z,58.60
2023-05-10T18:24:38.320Z,59.10
2023-05-10T18:27:10.209Z,59.50
2023-05-10T18:29:37.491Z,60.20
2023-05-10T18:32:04.686Z,60.10
2023-05-10T18:34:31.473Z,59.70
2023-05-10T18:36:58.462Z,59.50
2023-05-10T18:39:25.306Z,59.90
2023-05-10T18:41:52.250Z,59.80
2023-05-10T18:44:19.273Z,59.80
2023-05-10T18:46:46.526Z,59.70
2023-05-10T18:49:13.474Z,59.00
2023-05-10T18:51:40.544Z,58.40
2023-05-10T18:54:07.383Z,58.30
2023-05-10T18:56:34.174Z,57.70
2023-05-10T18:59:01.025Z,57.00
2023-05-10T19:01:27.895Z,57.50
2023-05-10T19:03:54.810Z,57.90
2023-05-10T19:06:21.671Z,58.60
2023-05-10T19:08:48.453Z,59.00
2023-05-10T19:11:15.713Z,59.30
2023-05-10T19:13:42.836Z,59.60
2023-05-10T19:16:15.485Z,59.60
2023-05-10T19:18:42.872Z,59.50
2023-05-10T19:21:10.862Z,59.30
2023-05-10T19:23:40.323Z,59.00
2023-05-10T19:26:09.344Z,59.30
2023-05-10T19:28:37.174Z,59.30
2023-05-10T19:31:04.120Z,59.40
2023-05-10T19:33:31.619Z,58.80
2023-05-10T19:35:58.417Z,59.30
2023-05-10T19:38:26.062Z,59.70
2023-05-10T19:40:58.303Z,60.00
2023-05-10T19:43:26.885Z,60.40
2023-05-10T19:45:54.265Z,61.00
2023-05-10T19:48:21.080Z,61.30
2023-05-10T19:50:47.876Z,61.70
2023-05-10T19:53:14.744Z,61.70
2023-05-10T19:55:41.680Z,61.60
2023-05-10T19:58:08.674Z,60.80
2023-05-10T20:00:36.214Z,60.60
2023-05-10T20:03:06.346Z,60.40
2023-05-10T20:05:34.538Z,60.70
2023-05-10T20:08:01.398Z,60.20
2023-05-10T20:10:28.248Z,58.50
2023-05-10T20:12:55.065Z,59.70
2023-05-10T20:15:23.094Z,60.40
2023-05-10T20:17:51.341Z,60.80
2023-05-10T20:20:18.581Z,61.20
2023-05-10T20:22:49.448Z,61.90
2023-05-10T20:25:17.755Z,60.80
2023-05-10T20:27:44.677Z,61.10
2023-05-10T20:30:11.853Z,61.10
2023-05-10T20:32:39.231Z,61.20
2023-05-10T20:35:07.170Z,61.10
2023-05-10T20:37:33.931Z,61.20
2023-05-10T20:40:00.828Z,60.90
2023-05-10T20:42:27.793Z,60.90
2023-05-10T20:44:54.608Z,60.80
2023-05-10T20:47:23.421Z,60.60
2023-05-10T20:49:50.321Z,60.30
2023-05-10T20:52:17.225Z,60.10
2023-05-10T20:54:44.161Z,59.70
2023-05-10T20:57:13.208Z,60.00
2023-05-10T20:59:40.103Z,59.60
2023-05-10T21:02:07.431Z,59.90
2023-05-10T21:04:34.463Z,59.50
2023-05-10T21:07:01.285Z,59.40
2023-05-10T21:09:29.535Z,59.90
2023-05-10T21:11:56.495Z,59.90
2023-05-10T21:14:23.343Z,60.40
2023-05-10T21:16:51.193Z,60.30
2023-05-10T21:19:18.048Z,60.30
2023-05-10T21:21:44.921Z,59.80
2023-05-10T21:24:12.398Z,59.60
2023-05-10T21:26:39.271Z,59.60
2023-05-10T21:29:06.560Z,59.60
2023-05-10T21:31:33.633Z,59.30
2023-05-10T21:34:01.128Z,59.30
2023-05-10T21:36:28.178Z,59.50
2023-05-10T21:38:55.055Z,59.80
2023-05-10T21:41:21.878Z,59.20
2023-05-10T21:43:48.762Z,59.70
2023-05-10T21:46:15.618Z,60.80
2023-05-10T21:48:42.395Z,61.00
2023-05-10T21:51:09.901Z,61.30
2023-05-10T21:53:39.046Z,61.70
2023-05-10T21:56:07.269Z,62.10
2023-05-10T21:58:34.166Z,61.80
2023-05-10T22:01:01.012Z,61.80
2023-05-10T22:03:28.052Z,61.20
2023-05-10T22:05:54.930Z,61.10
2023-05-10T22:08:21.714Z,60.90
2023-05-10T22:10:48.613Z,61.50
2023-05-10T22:13:15.500Z,60.80
2023-05-10T22:15:43.318Z,60.90
2023-05-10T22:18:10.367Z,60.80
2023-05-10T22:20:37.300Z,60.80
2023-05-10T22:23:04.132Z,61.00
2023-05-10T22:25:30.949Z,61.50
2023-05-10T22:27:57.665Z,61.80
2023-05-10T22:30:24.487Z,62.00
2023-05-10T22:32:51.257Z,61.90
2023-05-10T22:35:18.215Z,62.00
2023-05-10T22:37:44.973Z,61.90
2023-05-10T22:40:12.182Z,61.80
2023-05-10T22:42:39.160Z,61.60
2023-05-10T22:45:07.062Z,61.60
2023-05-10T22:47:33.932Z,61.60
2023-05-10T22:50:03.465Z,61.40
2023-05-10T22:52:30.480Z,61.30
2023-05-10T22:54:57.323Z,61.50
2023-05-10T22:57:24.563Z,61.50
2023-05-10T22:59:52.090Z,61.40
2023-05-10T23:02:19.122Z,61.90
2023-05-10T23:04:46.609Z,61.90
2023-05-10T23:07:13.735Z,62.00
2023-05-10T23:09:40.607Z,62.50
2023-05-10T23:12:07.489Z,63.40
2023-05-10T23:14:34.410Z,63.40
2023-05-10T23:17:01.383Z,63.80
2023-05-10T23:19:28.210Z,63.80
2023-05-10T23:21:55.082Z,62.90
2023-05-10T23:24:21.940Z,62.80
2023-05-10T23:26:48.736Z,62.50
2023-05-10T23:29:15.539Z,62.50
2023-05-10T23:31:45.704Z,62.70
2023-05-10T23:34:12.821Z,63.00
2023-05-10T23:36:39.600Z,63.20
2023-05-10T23:39:08.196Z,63.00
2023-05-10T23:41:35.063Z,63.20
2023-05-10T23:44:02.605Z,63.30
2023-05-10T23:46:29.463Z,64.00
2023-05-10T23:48:56.294Z,63.70
2023-05-10T23:51:23.142Z,63.90
2023-05-10T23:53:49.971Z,63.90
2023-05-10T23:56:16.705Z,63.50
2023-05-10T23:58:44.218Z,63.10
